createdAt,value
2019-01-23T00:00:41.731Z,0.90
2019-01-23T00:04:45.166Z,0.90
2019-01-23T00:08:48.590Z,1.00
2019-01-23T00:12:52.020Z,0.90
2019-01-23T00:16:55.454Z,0.90
2019-01-23T00:20:58.888Z,0.90
2019-01-23T00:25:02.319Z,1.00
2019-01-23T00:29:05.831Z,1.00
2019-01-23T00:33:09.252Z,1.00
2019-01-23T00:37:12.683Z,1.00
2019-01-23T00:41:35.450Z,1.00
2019-01-23T00:45:38.887Z,1.00
2019-01-23T00:49:42.324Z,0.90
2019-01-23T00:53:45.742Z,0.90
2019-01-23T00:57:49.176Z,0.90
2019-01-23T01:01:52.636Z,1.00
2019-01-23T01:05:56.264Z,1.00
2019-01-23T01:09:59.711Z,1.10
2019-01-23T01:14:03.133Z,1.00
2019-01-23T01:18:06.642Z,1.00
2019-01-23T01:22:10.143Z,1.10
2019-01-23T01:26:13.577Z,1.10
2019-01-23T01:30:22.435Z,1.10
2019-01-23T01:34:25.859Z,1.10
2019-01-23T01:38:29.290Z,1.10
2019-01-23T01:42:32.727Z,1.00
2019-01-23T01:46:36.166Z,1.10
2019-01-23T01:50:39.594Z,1.10
2019-01-23T01:54:43.012Z,1.10
2019-01-23T01:58:46.442Z,1.10
2019-01-23T02:02:49.870Z,1.10
2019-01-23T02:06:53.298Z,1.10
2019-01-23T02:10:56.714Z,1.00
2019-01-23T02:15:00.185Z,1.00
2019-01-23T02:19:03.877Z,1.10
2019-01-23T02:23:07.307Z,1.00
2019-01-23T02:27:10.734Z,1.00
2019-01-23T02:31:14.290Z,1.00
2019-01-23T02:35:18.104Z,1.00
2019-01-23T02:39:21.535Z,1.00
2019-01-23T02:43:24.969Z,1.00
2019-01-23T02:47:28.415Z,0.90
2019-01-23T02:51:31.830Z,1.00
2019-01-23T02:55:35.263Z,1.00
2019-01-23T02:59:38.711Z,1.00
2019-01-23T03:03:42.207Z,1.00
2019-01-23T03:07:45.658Z,1.00
2019-01-23T03:11:49.171Z,1.00
2019-01-23T03:15:52.603Z,1.00
2019-01-23T03:19:56.041Z,1.00
2019-01-23T03:23:59.475Z,1.10
2019-01-23T03:28:02.907Z,1.00
2019-01-23T03:32:06.360Z,1.00
2019-01-23T03:36:09.791Z,0.90
2019-01-23T03:40:18.624Z,0.90
2019-01-23T03:44:22.108Z,0.90
2019-01-23T03:48:25.523Z,0.90
2019-01-23T03:52:28.954Z,0.90
2019-01-23T03:56:32.394Z,0.80
2019-01-23T04:00:36.356Z,0.90
2019-01-23T04:04:39.794Z,0.90
2019-01-23T04:08:43.588Z,1.00
2019-01-23T04:12:47.022Z,1.00
2019-01-23T04:16:50.462Z,1.00
2019-01-23T04:20:53.935Z,0.90
2019-01-23T04:24:57.375Z,0.90
2019-01-23T04:29:00.790Z,0.80
2019-01-23T04:33:04.224Z,0.80
2019-01-23T04:37:07.678Z,0.80
2019-01-23T04:41:11.238Z,0.70
2019-01-23T04:45:16.699Z,0.70
2019-01-23T04:49:20.137Z,0.70
2019-01-23T04:53:25.199Z,0.70
2019-01-23T04:57:28.638Z,0.70
2019-01-23T05:01:32.058Z,0.70
2019-01-23T05:05:35.486Z,0.70
2019-01-23T05:09:38.912Z,0.70
2019-01-23T05:13:42.339Z,0.70
2019-01-23T05:17:45.780Z,0.70
2019-01-23T05:21:49.343Z,0.70
2019-01-23T05:25:52.845Z,0.70
2019-01-23T05:29:56.258Z,0.70
2019-01-23T05:33:59.693Z,0.70
2019-01-23T05:38:03.640Z,0.70
2019-01-23T05:42:07.186Z,0.70
2019-01-23T05:46:10.628Z,0.60
2019-01-23T05:50:16.593Z,0.60
2019-01-23T05:54:20.015Z,0.70
2019-01-23T05:58:23.452Z,0.60
2019-01-23T06:02:26.870Z,0.60
2019-01-23T06:06:30.338Z,0.60
2019-01-23T06:10:33.786Z,0.60
2019-01-23T06:14:37.212Z,0.60
2019-01-23T06:18:40.655Z,0.60
2019-01-23T06:22:44.101Z,0.60
2019-01-23T06:26:47.534Z,0.60
2019-01-23T06:30:50.968Z,0.60
2019-01-23T06:34:54.478Z,0.50
2019-01-23T06:38:57.911Z,0.50
2019-01-23T06:43:01.343Z,0.60
2019-01-23T06:47:04.836Z,0.60
2019-01-23T06:51:08.285Z,0.60
2019-01-23T06:55:11.785Z,0.50
2019-01-23T06:59:15.207Z,0.50
2019-01-23T07:03:18.643Z,0.50
2019-01-23T07:07:22.068Z,0.50
2019-01-23T07:11:25.492Z,0.50
2019-01-23T07:15:28.938Z,0.50
2019-01-23T07:19:32.376Z,0.60
2019-01-23T07:23:35.822Z,0.50
2019-01-23T07:27:39.261Z,0.60
2019-01-23T07:31:42.697Z,0.50
2019-01-23T07:35:46.120Z,0.50
2019-01-23T07:39:49.569Z,0.50
2019-01-23T07:43:53.003Z,0.50
2019-01-23T07:47:56.414Z,0.50
2019-01-23T07:51:59.843Z,0.50
2019-01-23T07:56:03.282Z,0.50
2019-01-23T08:00:09.788Z,0.50
2019-01-23T08:04:13.216Z,0.60
2019-01-23T08:08:16.657Z,0.70
2019-01-23T08:12:20.107Z,0.60
2019-01-23T08:16:23.558Z,0.70
2019-01-23T08:20:28.870Z,0.70
2019-01-23T08:24:32.295Z,0.70
2019-01-23T08:28:35.728Z,0.70
2019-01-23T08:32:39.167Z,0.70
2019-01-23T08:36:42.603Z,0.70
2019-01-23T08:40:46.026Z,0.70
2019-01-23T08:44:49.490Z,0.80
2019-01-23T08:48:52.929Z,0.80
2019-01-23T08:52:56.376Z,0.70
2019-01-23T08:56:59.801Z,0.60
2019-01-23T09:01:03.232Z,0.70
2019-01-23T09:05:09.375Z,0.70
2019-01-23T09:09:12.809Z,0.70
2019-01-23T09:13:16.243Z,0.60
2019-01-23T09:17:19.676Z,0.70
2019-01-23T09:21:23.132Z,0.60
2019-01-23T09:25:27.690Z,0.60
2019-01-23T09:29:31.189Z,0.70
2019-01-23T09:33:43.354Z,0.60
2019-01-23T09:37:58.135Z,0.60
2019-01-23T09:42:16.644Z,0.70
2019-01-23T09:46:31.592Z,0.70
2019-01-23T09:50:53.175Z,0.80
2019-01-23T09:54:56.612Z,0.80
2019-01-23T09:59:02.700Z,0.70
2019-01-23T10:03:05.636Z,0.70
2019-01-23T10:07:09.078Z,0.70
2019-01-23T10:11:12.577Z,0.70
2019-01-23T10:15:19.198Z,0.80
2019-01-23T10:19:22.631Z,0.80
2019-01-23T10:23:26.208Z,0.80
2019-01-23T10:27:29.636Z,0.80
2019-01-23T10:31:33.062Z,0.70
2019-01-23T10:35:36.671Z,0.80
2019-01-23T10:39:40.103Z,0.80
2019-01-23T10:43:43.576Z,0.70
2019-01-23T10:47:48.005Z,0.70
2019-01-23T10:51:51.431Z,0.60
2019-01-23T10:55:54.858Z,0.70
2019-01-23T10:59:58.325Z,0.70
2019-01-23T11:04:01.910Z,0.80
2019-01-23T11:08:06.484Z,0.80
2019-01-23T11:12:09.909Z,0.70
2019-01-23T11:16:13.335Z,0.80
2019-01-23T11:20:19.116Z,0.80
2019-01-23T11:24:22.542Z,0.70
2019-01-23T11:28:25.962Z,0.80
2019-01-23T11:32:29.408Z,0.80
2019-01-23T11:36:32.841Z,0.90
2019-01-23T11:40:36.279Z,0.80
2019-01-23T11:44:39.720Z,0.90
2019-01-23T11:48:43.155Z,1.00
2019-01-23T11:52:48.027Z,0.90
2019-01-23T11:56:51.479Z,1.00
2019-01-23T12:00:54.903Z,1.00
2019-01-23T12:04:58.344Z,1.00
2019-01-23T12:09:01.841Z,1.00
2019-01-23T12:13:05.278Z,1.00
2019-01-23T12:17:08.789Z,0.90
2019-01-23T12:21:12.231Z,1.00
2019-01-23T12:25:15.781Z,1.10
2019-01-23T12:29:19.221Z,1.00
2019-01-23T12:33:22.648Z,1.00
2019-01-23T12:37:26.070Z,1.00
2019-01-23T12:41:29.495Z,1.00
2019-01-23T12:45:33.357Z,1.00
2019-01-23T12:49:36.791Z,1.00
2019-01-23T12:53:40.247Z,1.10
2019-01-23T12:57:43.736Z,1.10
2019-01-23T13:01:47.224Z,1.10
2019-01-23T13:05:50.654Z,1.20
2019-01-23T13:09:54.116Z,1.20
2019-01-23T13:13:57.562Z,1.20
2019-01-23T13:18:01.028Z,1.20
2019-01-23T13:22:04.725Z,0.90
2019-01-23T13:26:08.156Z,0.90
2019-01-23T13:30:20.200Z,0.90
2019-01-23T13:34:23.667Z,0.90
2019-01-23T13:38:27.166Z,0.90
2019-01-23T13:42:30.592Z,0.90
2019-01-23T13:46:34.024Z,0.90
2019-01-23T13:50:37.496Z,1.00
2019-01-23T13:54:40.931Z,1.00
2019-01-23T13:58:44.389Z,0.90
2019-01-23T14:02:47.804Z,1.00
2019-01-23T14:06:51.238Z,0.90
2019-01-23T14:10:54.670Z,0.90
2019-01-23T14:14:58.118Z,0.70
2019-01-23T14:19:01.553Z,0.70
2019-01-23T14:23:05.328Z,0.70
2019-01-23T14:27:08.758Z,0.80
2019-01-23T14:31:12.197Z,0.80
2019-01-23T14:35:15.676Z,0.80
2019-01-23T14:39:19.107Z,0.70
2019-01-23T14:43:22.611Z,0.70
2019-01-23T14:47:26.038Z,0.70
2019-01-23T14:51:29.480Z,0.60
2019-01-23T14:55:33.153Z,0.50
2019-01-23T14:59:36.583Z,0.50
2019-01-23T15:03:40.018Z,0.50
2019-01-23T15:07:43.439Z,0.50
2019-01-23T15:11:46.890Z,0.60
2019-01-23T15:15:50.318Z,0.60
2019-01-23T15:19:56.513Z,0.50
2019-01-23T15:23:59.949Z,0.50
2019-01-23T15:28:03.698Z,0.40
2019-01-23T15:32:07.127Z,0.40
2019-01-23T15:36:10.559Z,0.40
2019-01-23T15:40:23.980Z,0.30
2019-01-23T15:44:27.405Z,0.30
2019-01-23T15:48:30.834Z,0.30
2019-01-23T15:52:34.269Z,0.20
2019-01-23T15:56:37.706Z,0.20
2019-01-23T16:00:41.150Z,0.20
2019-01-23T16:04:44.573Z,0.20
2019-01-23T16:08:47.998Z,0.20
2019-01-23T16:12:51.728Z,0.20
2019-01-23T16:16:55.176Z,0.20
2019-01-23T16:20:58.592Z,0.20
2019-01-23T16:25:02.247Z,0.00
2019-01-23T16:29:05.754Z,0.00
2019-01-23T16:33:09.183Z,0.00
2019-01-23T16:37:12.788Z,0.00
2019-01-23T16:41:16.210Z,0.10
2019-01-23T16:45:21.174Z,0.10
2019-01-23T16:49:24.612Z,0.10
2019-01-23T16:53:29.015Z,0.10
2019-01-23T16:57:33.870Z,0.10
2019-01-23T17:01:37.545Z,0.00
2019-01-23T17:05:40.991Z,0.00
2019-01-23T17:09:44.439Z,0.00
2019-01-23T17:13:47.875Z,0.10
2019-01-23T17:17:51.423Z,0.10
2019-01-23T17:21:54.841Z,0.20
2019-01-23T17:25:58.291Z,0.20
2019-01-23T17:30:01.750Z,0.20
2019-01-23T17:34:05.218Z,0.20
2019-01-23T17:38:08.743Z,0.20
2019-01-23T17:42:12.171Z,0.30
2019-01-23T17:46:15.595Z,0.30
2019-01-23T17:50:21.484Z,0.30
2019-01-23T17:54:24.920Z,0.30
2019-01-23T17:58:28.344Z,0.30
2019-01-23T18:02:31.785Z,0.20
2019-01-23T18:06:35.213Z,0.20
2019-01-23T18:10:38.679Z,0.20
2019-01-23T18:14:48.876Z,0.20
2019-01-23T18:18:47.307Z,0.30
2019-01-23T18:22:50.745Z,0.30
2019-01-23T18:26:54.174Z,0.20
2019-01-23T18:31:06.648Z,0.30
2019-01-23T18:35:15.830Z,0.20
2019-01-23T18:39:28.201Z,0.30
2019-01-23T18:43:40.674Z,0.30
2019-01-23T18:47:59.224Z,0.30
2019-01-23T18:52:11.212Z,0.30
2019-01-23T18:56:14.653Z,0.30
2019-01-23T19:00:38.953Z,0.30
2019-01-23T19:04:42.376Z,0.20
2019-01-23T19:08:45.826Z,0.10
2019-01-23T19:12:49.332Z,0.20
2019-01-23T19:16:52.762Z,0.20
2019-01-23T19:20:56.192Z,0.20
2019-01-23T19:24:59.632Z,0.20
2019-01-23T19:29:03.113Z,0.20
2019-01-23T19:33:13.349Z,0.30
2019-01-23T19:37:12.300Z,0.20
2019-01-23T19:41:20.319Z,0.10
2019-01-23T19:45:22.116Z,0.10
2019-01-23T19:49:25.694Z,0.10
2019-01-23T19:53:29.248Z,0.00
2019-01-23T19:57:32.701Z,0.10
2019-01-23T20:01:36.107Z,0.10
2019-01-23T20:05:39.543Z,0.20
2019-01-23T20:09:42.974Z,0.20
2019-01-23T20:13:46.409Z,0.20
2019-01-23T20:17:51.284Z,0.10
2019-01-23T20:21:54.724Z,0.10
2019-01-23T20:25:58.177Z,0.10
2019-01-23T20:30:01.617Z,0.20
2019-01-23T20:34:05.595Z,0.00
2019-01-23T20:38:09.094Z,0.00
2019-01-23T20:42:12.527Z,-0.10
2019-01-23T20:46:15.965Z,-0.10
2019-01-23T20:50:25.078Z,-0.10
2019-01-23T20:54:28.523Z,-0.20
2019-01-23T20:58:31.959Z,-0.30
2019-01-23T21:02:35.400Z,-0.30
2019-01-23T21:06:38.840Z,-0.20
2019-01-23T21:10:42.260Z,-0.20
2019-01-23T21:14:45.701Z,-0.20
2019-01-23T21:18:50.365Z,-0.30
2019-01-23T21:22:53.792Z,-0.20
2019-01-23T21:26:57.247Z,-0.20
2019-01-23T21:31:00.680Z,-0.30
2019-01-23T21:35:06.663Z,-0.30
2019-01-23T21:43:25.877Z,-0.20
2019-01-23T21:47:29.296Z,-0.30
2019-01-23T21:51:32.748Z,-0.30
2019-01-23T21:55:36.252Z,-0.20
2019-01-23T21:59:40.167Z,-0.20
2019-01-23T22:03:49.211Z,-0.20
2019-01-23T22:07:48.750Z,-0.20
2019-01-23T22:11:52.196Z,-0.20
2019-01-23T22:15:55.635Z,-0.30
2019-01-23T22:19:59.091Z,-0.30
2019-01-23T22:24:02.539Z,-0.30
2019-01-23T22:28:06.062Z,-0.20
2019-01-23T22:32:09.558Z,-0.20
2019-01-23T22:36:13.011Z,-0.20
2019-01-23T22:40:18.856Z,-0.20
2019-01-23T22:44:22.277Z,-0.20
2019-01-23T22:48:25.727Z,-0.20
2019-01-23T22:52:29.159Z,-0.20
2019-01-23T22:56:32.606Z,-0.20
2019-01-23T23:00:39.683Z,-0.20
2019-01-23T23:04:43.098Z,-0.10
2019-01-23T23:08:46.536Z,-0.10
2019-01-23T23:12:50.027Z,-0.10
2019-01-23T23:16:53.459Z,0.00
2019-01-23T23:20:56.908Z,-0.10
2019-01-23T23:25:00.323Z,0.00
2019-01-23T23:29:03.935Z,0.00
2019-01-23T23:33:07.370Z,0.00
2019-01-23T23:37:10.800Z,0.10
2019-01-23T23:41:14.232Z,0.10
2019-01-23T23:45:19.093Z,0.10
2019-01-23T23:49:22.524Z,0.10
2019-01-23T23:53:25.950Z,0.20
2019-01-23T23:57:29.382Z,0.20
